Time;durP1;ratioP1;P1;durP2;ratioP2;P2;SDS_P1;SDS_P2;PMS_P1;PMS_P2;Temp;Humidity;BMP_temperature;BMP_pressure;BME280_temperature;BME280_humidity;BME280_pressure;Samples;Min_cycle;Max_cycle;Signal;HPM_P1;HPM_P2
2022/06/28 00:00:22;;;;;;;9.00;5.38;;;14.00;99.90;;;;;;6217355;23;20055;-82
2022/06/28 00:02:48;;;;;;;7.00;4.85;;;14.10;99.90;;;;;;6218542;23;20043;-82
2022/06/28 00:05:15;;;;;;;8.23;4.22;;;14.00;99.90;;;;;;6217472;23;20047;-82
2022/06/28 00:07:41;;;;;;;7.47;5.50;;;14.00;99.90;;;;;;6217610;23;20400;-82
2022/06/28 00:10:08;;;;;;;8.52;4.85;;;14.00;99.90;;;;;;6245216;23;20018;-82
2022/06/28 00:12:35;;;;;;;5.50;4.78;;;14.00;99.90;;;;;;6191851;23;20020;-84
2022/06/28 00:17:45;;;;;;;6.63;4.25;;;14.00;99.90;;;;;;6216372;23;20020;-82
2022/06/28 00:20:11;;;;;;;8.03;5.43;;;13.90;99.90;;;;;;6217655;23;20016;-82
2022/06/28 00:22:37;;;;;;;9.27;4.75;;;13.90;99.90;;;;;;6191612;23;20016;-83
2022/06/28 00:25:04;;;;;;;7.70;5.10;;;13.90;99.90;;;;;;6217814;23;20027;-82
2022/06/28 00:27:30;;;;;;;8.20;4.63;;;13.90;99.90;;;;;;6243214;23;20054;-82
2022/06/28 00:29:56;;;;;;;7.68;4.68;;;13.80;99.90;;;;;;6192710;23;20020;-82
2022/06/28 00:32:21;;;;;;;6.00;4.23;;;13.80;99.90;;;;;;6192927;23;20019;-86
2022/06/28 00:34:47;;;;;;;5.67;4.80;;;13.80;99.90;;;;;;6216907;23;20091;-83
2022/06/28 00:37:13;;;;;;;7.60;4.85;;;13.80;99.90;;;;;;6244459;23;20020;-83
2022/06/28 00:39:39;;;;;;;7.65;4.50;;;13.70;99.90;;;;;;6216857;23;20058;-82
2022/06/28 00:42:08;;;;;;;6.28;4.22;;;13.70;99.90;;;;;;6192355;23;20016;-81
2022/06/28 00:44:33;;;;;;;5.97;4.85;;;13.70;99.90;;;;;;6242553;23;20464;-82
2022/06/28 00:47:00;;;;;;;5.43;4.30;;;13.70;99.90;;;;;;6244434;23;20020;-82
2022/06/28 00:49:26;;;;;;;;;;;13.70;99.90;;;;;;6217408;23;20047;-88
2022/06/28 00:51:52;;;;;;;8.48;5.13;;;13.60;99.90;;;;;;6217156;23;19942;-82
2022/06/28 00:54:18;;;;;;;6.30;4.73;;;13.70;99.90;;;;;;6217939;23;20016;-82
2022/06/28 00:56:43;;;;;;;5.87;4.73;;;13.60;99.90;;;;;;6191825;23;20261;-82
2022/06/28 00:59:09;;;;;;;8.23;4.73;;;13.60;99.90;;;;;;6217595;23;20464;-82
2022/06/28 01:01:34;;;;;;;6.57;4.80;;;13.60;99.90;;;;;;6215493;23;20099;-82
2022/06/28 01:04:00;;;;;;;6.10;5.00;;;13.50;99.90;;;;;;6193068;23;20027;-82
2022/06/28 01:06:26;;;;;;;7.80;5.23;;;13.60;99.90;;;;;;6217097;23;20028;-86
2022/06/28 01:08:52;;;;;;;6.10;4.63;;;13.90;99.90;;;;;;6215885;23;20092;-83
2022/06/28 01:11:20;;;;;;;10.40;4.90;;;13.60;99.90;;;;;;6192661;23;20023;-82
2022/06/28 01:13:52;;;;;;;6.13;4.28;;;13.50;99.90;;;;;;6216921;23;20016;-83
2022/06/28 01:16:18;;;;;;;6.15;4.65;;;13.50;99.90;;;;;;6193017;23;20039;-82
2022/06/28 01:18:44;;;;;;;7.47;4.85;;;13.40;99.90;;;;;;6243459;23;20008;-82
2022/06/28 01:21:13;;;;;;;4.90;4.33;;;13.40;99.90;;;;;;6192253;23;20095;-82
2022/06/28 01:23:43;;;;;;;9.25;6.13;;;13.40;99.90;;;;;;6216264;23;20314;-82
2022/06/28 01:26:15;;;;;;;5.53;4.25;;;13.40;99.90;;;;;;6244264;23;20023;-82
2022/06/28 01:28:43;;;;;;;8.27;5.72;;;13.40;99.90;;;;;;6243249;23;20015;-82
2022/06/28 01:31:10;;;;;;;5.90;5.07;;;13.40;99.90;;;;;;6216248;23;20099;-82
2022/06/28 01:33:37;;;;;;;7.68;5.60;;;13.40;99.90;;;;;;6191141;23;20471;-83
2022/06/28 01:36:04;;;;;;;6.35;4.70;;;13.30;99.90;;;;;;6167774;23;20091;-85
2022/06/28 01:38:30;;;;;;;;;;;13.30;99.90;;;;;;6218155;23;20013;-86
2022/06/28 01:40:56;;;;;;;7.70;5.68;;;13.30;99.90;;;;;;6216152;23;19951;-85
2022/06/28 01:43:22;;;;;;;7.20;5.13;;;13.30;99.90;;;;;;6244023;23;20031;-82
2022/06/28 01:45:50;;;;;;;7.97;5.35;;;13.20;99.90;;;;;;6216365;23;20016;-84
2022/06/28 01:48:18;;;;;;;7.03;5.63;;;13.20;99.90;;;;;;6244376;23;20098;-82
2022/06/28 01:50:47;;;;;;;7.95;5.82;;;13.20;99.90;;;;;;6191935;23;20020;-82
2022/06/28 01:53:14;;;;;;;5.30;4.82;;;13.20;99.90;;;;;;6216561;23;20471;-83
2022/06/28 01:55:41;;;;;;;6.35;5.03;;;13.20;99.90;;;;;;6191209;23;20022;-82
2022/06/28 01:58:07;;;;;;;7.05;6.13;;;13.20;99.90;;;;;;6217620;23;20024;-82
2022/06/28 02:00:33;;;;;;;4.78;4.38;;;13.20;99.90;;;;;;6216540;23;20054;-82
2022/06/28 02:02:58;;;;;;;6.97;5.30;;;13.10;99.90;;;;;;6243398;23;20016;-82
2022/06/28 02:05:25;;;;;;;7.87;4.70;;;13.10;99.90;;;;;;6191419;23;20707;-83
2022/06/28 02:07:51;;;;;;;4.95;4.38;;;13.10;99.90;;;;;;6216121;23;20016;-82
2022/06/28 02:10:18;;;;;;;7.10;5.32;;;13.00;99.90;;;;;;6216846;23;20510;-83
2022/06/28 02:12:43;;;;;;;;;;;13.00;99.90;;;;;;6217045;23;20016;-82
2022/06/28 02:15:10;;;;;;;5.97;4.72;;;13.00;99.90;;;;;;6192262;23;19961;-84
2022/06/28 02:17:35;;;;;;;9.55;5.72;;;13.00;99.90;;;;;;6217256;23;20020;-87
2022/06/28 02:20:01;;;;;;;5.57;4.70;;;13.00;99.90;;;;;;6216754;23;20028;-82
2022/06/28 02:22:27;;;;;;;5.80;4.65;;;13.00;99.90;;;;;;6191050;23;20523;-82
2022/06/28 02:24:53;;;;;;;6.20;4.95;;;13.00;99.90;;;;;;6242603;23;20099;-82
2022/06/28 02:27:19;;;;;;;7.93;5.68;;;13.00;99.90;;;;;;6243421;23;20468;-84
2022/06/28 02:29:45;;;;;;;5.93;5.13;;;13.00;99.90;;;;;;6216456;23;20096;-82
2022/06/28 02:32:11;;;;;;;6.97;4.73;;;13.00;99.90;;;;;;6216517;23;20059;-82
2022/06/28 02:40:21;;;;;;;7.40;5.22;;;13.00;99.90;;;;;;6195618;23;20073;-82
2022/06/28 02:42:52;;;;;;;7.75;5.95;;;13.00;99.90;;;;;;6215744;23;20100;-83
2022/06/28 02:45:18;;;;;;;6.25;5.35;;;12.90;99.90;;;;;;6216812;23;20013;-83
2022/06/28 02:47:44;;;;;;;7.78;4.63;;;12.90;99.90;;;;;;6216765;23;20020;-83
2022/06/28 02:50:10;;;;;;;6.33;4.93;;;12.90;99.90;;;;;;6217480;23;20049;-82
2022/06/28 02:52:36;;;;;;;6.47;4.53;;;12.90;99.90;;;;;;6189611;23;20059;-82
2022/06/28 02:55:03;;;;;;;6.18;4.75;;;12.80;99.90;;;;;;6216344;23;20128;-83
2022/06/28 02:57:29;;;;;;;5.57;4.47;;;12.80;99.90;;;;;;6243686;23;20372;-82
2022/06/28 02:59:55;;;;;;;5.53;4.55;;;12.80;99.90;;;;;;6215883;23;20469;-82
2022/06/28 03:02:21;;;;;;;8.73;5.93;;;12.70;99.90;;;;;;6216836;23;20020;-82
2022/06/28 03:04:46;;;;;;;5.63;4.57;;;12.70;99.90;;;;;;6216219;23;20063;-83
2022/06/28 03:07:12;;;;;;;5.57;4.60;;;12.70;99.90;;;;;;6243354;23;20023;-83
2022/06/28 03:09:38;;;;;;;6.77;5.07;;;12.70;99.90;;;;;;6219054;23;20071;-82
2022/06/28 03:12:06;;;;;;;6.53;4.77;;;12.70;99.90;;;;;;6218586;23;20510;-82
2022/06/28 03:14:32;;;;;;;8.38;4.45;;;12.70;99.90;;;;;;6193149;23;20016;-82
2022/06/28 03:16:58;;;;;;;8.27;3.83;;;12.70;99.90;;;;;;6217756;23;20433;-82
2022/06/28 03:19:24;;;;;;;5.40;4.03;;;12.60;99.90;;;;;;6218713;23;20016;-82
2022/06/28 03:21:49;;;;;;;4.60;3.90;;;12.70;99.90;;;;;;6193245;23;20103;-82
2022/06/28 03:24:15;;;;;;;5.07;4.43;;;12.60;99.90;;;;;;6218541;23;20095;-82
2022/06/28 03:26:41;;;;;;;7.03;4.20;;;12.60;99.90;;;;;;6245586;23;20023;-82
2022/06/28 03:29:07;;;;;;;6.87;5.23;;;12.60;99.90;;;;;;6167903;23;20673;-83
2022/06/28 03:31:32;;;;;;;7.20;4.53;;;12.50;99.90;;;;;;6218523;23;20020;-83
2022/06/28 03:33:59;;;;;;;6.43;4.53;;;12.50;99.90;;;;;;6192407;23;20258;-81
2022/06/28 03:36:25;;;;;;;9.88;5.10;;;12.50;99.90;;;;;;6192348;23;20372;-82
2022/06/28 03:38:51;;;;;;;6.57;4.97;;;12.60;99.90;;;;;;6192120;23;20030;-82
2022/06/28 03:41:22;;;;;;;6.27;4.23;;;12.50;99.90;;;;;;6218447;23;20028;-83
2022/06/28 03:43:52;;;;;;;7.05;4.55;;;12.50;99.90;;;;;;6193314;23;20403;-87
2022/06/28 03:46:19;;;;;;;6.55;5.13;;;12.50;99.90;;;;;;6218172;23;20168;-83
2022/06/28 03:48:44;;;;;;;;;;;12.50;99.90;;;;;;6218069;23;20109;-82
2022/06/28 03:51:10;;;;;;;5.80;4.38;;;12.50;99.90;;;;;;6217702;23;19919;-82
2022/06/28 03:53:36;;;;;;;7.18;5.25;;;12.40;99.90;;;;;;6218627;23;20510;-82
2022/06/28 03:56:02;;;;;;;6.20;5.18;;;12.50;99.90;;;;;;6192068;23;20340;-82
2022/06/28 03:58:28;;;;;;;5.43;4.88;;;12.50;99.90;;;;;;6244822;23;20016;-83
2022/06/28 04:00:54;;;;;;;6.60;4.23;;;12.50;99.90;;;;;;6217977;23;20333;-82
2022/06/28 04:03:19;;;;;;;5.17;4.00;;;12.60;99.90;;;;;;6245404;23;20314;-82
2022/06/28 04:05:45;;;;;;;6.05;4.93;;;12.50;99.90;;;;;;6218228;23;20432;-82
2022/06/28 04:08:11;;;;;;;5.97;4.18;;;12.50;99.90;;;;;;6167325;23;20020;-82
2022/06/28 04:10:37;;;;;;;4.37;3.97;;;12.50;99.90;;;;;;6217834;23;20379;-82
2022/06/28 04:13:03;;;;;;;5.63;4.57;;;12.60;99.90;;;;;;6192339;23;20103;-83
2022/06/28 04:15:30;;;;;;;7.57;5.70;;;12.50;99.90;;;;;;6218208;23;20066;-82
2022/06/28 04:17:55;;;;;;;6.18;4.18;;;12.50;99.90;;;;;;6243367;23;20242;-83
2022/06/28 04:20:21;;;;;;;5.40;4.33;;;12.50;99.90;;;;;;6244522;23;20020;-82
2022/06/28 04:22:46;;;;;;;5.23;4.57;;;12.60;99.90;;;;;;6143792;23;20026;-85
2022/06/28 04:25:12;;;;;;;6.07;4.10;;;12.60;99.90;;;;;;6192439;23;20012;-82
2022/06/28 04:27:38;;;;;;;6.83;4.67;;;12.70;99.90;;;;;;6218040;23;20027;-82
2022/06/28 04:30:04;;;;;;;4.80;4.17;;;12.70;99.90;;;;;;6217624;23;20020;-82
2022/06/28 04:32:30;;;;;;;8.00;4.55;;;12.70;99.90;;;;;;6217878;23;20023;-82
2022/06/28 04:34:56;;;;;;;6.45;4.68;;;12.80;99.90;;;;;;6217547;23;20031;-84
2022/06/28 04:37:22;;;;;;;6.20;4.80;;;12.80;99.90;;;;;;6192996;23;20391;-85
2022/06/28 04:39:48;;;;;;;7.97;4.83;;;12.90;99.90;;;;;;6192247;23;20016;-83
2022/06/28 04:42:14;;;;;;;5.97;4.67;;;12.80;99.90;;;;;;6216771;23;20036;-82
2022/06/28 04:44:41;;;;;;;6.40;4.30;;;12.90;99.90;;;;;;6217453;23;20016;-83
2022/06/28 04:47:07;;;;;;;8.38;5.57;;;12.90;99.90;;;;;;6244217;23;20056;-83
2022/06/28 04:49:33;;;;;;;6.22;4.47;;;12.90;99.90;;;;;;6217651;23;20051;-83
2022/06/28 04:51:59;;;;;;;4.77;3.80;;;13.00;99.90;;;;;;6167206;23;20381;-82
2022/06/28 04:54:25;;;;;;;6.70;4.43;;;13.00;99.90;;;;;;6217424;23;20020;-82
2022/06/28 04:56:52;;;;;;;6.53;4.37;;;13.00;99.90;;;;;;6244907;23;20031;-83
2022/06/28 04:59:17;;;;;;;5.53;4.65;;;13.10;99.90;;;;;;6191559;23;20016;-82
2022/06/28 05:01:43;;;;;;;9.02;5.28;;;13.10;99.90;;;;;;6217971;23;20020;-82
2022/06/28 05:04:09;;;;;;;5.00;3.87;;;13.20;99.90;;;;;;6216708;23;20090;-83
2022/06/28 05:06:35;;;;;;;6.73;4.33;;;13.30;99.90;;;;;;6217588;23;20707;-82
2022/06/28 05:09:00;;;;;;;8.77;4.97;;;13.30;99.90;;;;;;6243236;23;20023;-86
2022/06/28 05:11:26;;;;;;;7.60;4.10;;;13.40;99.90;;;;;;6216763;23;20013;-82
2022/06/28 05:13:52;;;;;;;5.13;4.37;;;13.40;99.90;;;;;;6191678;23;20166;-82
2022/06/28 05:16:17;;;;;;;8.05;4.93;;;13.50;99.90;;;;;;6217252;23;20023;-82
2022/06/28 05:18:43;;;;;;;11.20;4.43;;;13.60;99.90;;;;;;6217851;23;20023;-82
2022/06/28 05:21:09;;;;;;;6.67;4.47;;;13.60;99.90;;;;;;6215902;23;20030;-83
2022/06/28 05:23:37;;;;;;;6.30;5.07;;;13.70;99.90;;;;;;6192145;23;20354;-83
2022/06/28 05:26:03;;;;;;;7.28;5.70;;;13.80;99.90;;;;;;6243987;23;20012;-84
2022/06/28 05:28:29;;;;;;;5.68;4.70;;;13.90;99.90;;;;;;6217676;23;20051;-82
2022/06/28 05:30:54;;;;;;;5.53;4.57;;;14.00;99.90;;;;;;6167144;23;20106;-83
2022/06/28 05:33:21;;;;;;;11.20;4.83;;;14.00;99.90;;;;;;6243163;23;20054;-82
2022/06/28 05:35:46;;;;;;;4.85;4.35;;;14.10;99.90;;;;;;6217013;23;20020;-83
2022/06/28 05:38:12;;;;;;;8.37;4.43;;;14.20;99.90;;;;;;6191797;23;20022;-83
2022/06/28 05:40:38;;;;;;;6.77;4.30;;;14.30;99.90;;;;;;6217963;23;20336;-82
2022/06/28 05:43:03;;;;;;;6.20;4.67;;;14.30;99.90;;;;;;6166257;23;20023;-87
2022/06/28 05:45:29;;;;;;;6.47;4.53;;;14.40;99.90;;;;;;6191004;23;20024;-83
2022/06/28 05:47:55;;;;;;;7.27;4.47;;;14.50;99.90;;;;;;6216731;23;20471;-82
2022/06/28 05:50:20;;;;;;;7.27;4.80;;;14.50;99.90;;;;;;6191975;23;20027;-82
2022/06/28 05:52:47;;;;;;;5.07;4.10;;;14.60;99.90;;;;;;6216863;23;20048;-82
2022/06/28 05:55:13;;;;;;;5.22;4.57;;;14.70;99.90;;;;;;6216151;23;20258;-84
2022/06/28 05:57:39;;;;;;;4.38;3.97;;;14.80;99.90;;;;;;6217523;23;20062;-82
2022/06/28 06:00:05;;;;;;;9.77;5.88;;;14.80;99.90;;;;;;6215395;23;20012;-88
2022/06/28 06:02:31;;;;;;;7.25;3.97;;;14.90;99.90;;;;;;6215432;23;20054;-83
2022/06/28 06:04:59;;;;;;;5.47;4.03;;;14.90;99.90;;;;;;6243858;23;20045;-82
2022/06/28 06:07:25;;;;;;;12.68;5.18;;;14.90;99.90;;;;;;6243009;23;20016;-83
2022/06/28 06:09:51;;;;;;;7.07;4.35;;;14.90;99.90;;;;;;6169935;23;20012;-85
2022/06/28 06:12:17;;;;;;;9.13;5.03;;;15.00;99.90;;;;;;6217260;23;20012;-85
2022/06/28 06:14:43;;;;;;;6.28;4.22;;;15.10;99.90;;;;;;6243500;23;20445;-85
2022/06/28 06:17:09;;;;;;;4.90;3.88;;;15.20;99.90;;;;;;6217364;23;20043;-90
2022/06/28 06:19:34;;;;;;;6.47;3.73;;;15.20;99.90;;;;;;6244644;23;20020;-85
2022/06/28 06:22:00;;;;;;;4.20;3.43;;;15.40;99.90;;;;;;6192547;23;20039;-85
2022/06/28 06:24:26;;;;;;;6.17;3.90;;;15.40;99.90;;;;;;6192098;23;20078;-86
2022/06/28 06:26:51;;;;;;;8.50;4.60;;;15.50;99.90;;;;;;6244343;23;20024;-85
2022/06/28 06:29:17;;;;;;;7.25;5.47;;;15.50;99.90;;;;;;6217412;23;20012;-86
2022/06/28 06:31:43;;;;;;;5.90;4.27;;;15.50;99.90;;;;;;6217715;23;20266;-85
2022/06/28 06:34:09;;;;;;;5.97;4.47;;;15.60;99.90;;;;;;6192855;23;20561;-85
2022/06/28 06:36:35;;;;;;;7.65;4.05;;;15.70;99.90;;;;;;6192648;23;20459;-85
2022/06/28 06:39:01;;;;;;;7.40;4.35;;;15.80;99.90;;;;;;6217773;23;20031;-88
2022/06/28 06:41:27;;;;;;;4.78;3.80;;;15.90;99.90;;;;;;6193022;23;20030;-84
2022/06/28 06:43:53;;;;;;;6.30;3.67;;;16.00;99.90;;;;;;6195683;23;20095;-85
2022/06/28 06:46:19;;;;;;;6.93;4.75;;;16.10;99.90;;;;;;6247325;23;20082;-86
2022/06/28 06:48:45;;;;;;;5.40;4.53;;;16.10;99.90;;;;;;6220875;23;20421;-86
2022/06/28 06:51:11;;;;;;;10.50;5.33;;;16.20;99.90;;;;;;6220819;23;20016;-86
2022/06/28 06:53:37;;;;;;;7.63;3.47;;;16.30;99.90;;;;;;6195923;23;20054;-86
2022/06/28 06:56:02;;;;;;;7.05;4.25;;;16.30;99.90;;;;;;6220600;23;20262;-86
2022/06/28 06:58:28;;;;;;;4.57;4.10;;;16.40;99.90;;;;;;6246174;23;20333;-86
2022/06/28 07:00:54;;;;;;;5.70;3.43;;;16.50;99.90;;;;;;6220752;23;20016;-85
2022/06/28 07:03:20;;;;;;;6.40;4.07;;;16.60;99.90;;;;;;6220229;23;20013;-86
2022/06/28 07:05:45;;;;;;;6.05;4.20;;;16.70;99.90;;;;;;6220716;23;20374;-86
2022/06/28 07:08:11;;;;;;;5.93;3.33;;;16.80;99.90;;;;;;6195742;23;20026;-86
2022/06/28 07:10:37;;;;;;;4.70;3.70;;;16.90;99.90;;;;;;6196964;23;20043;-86
2022/06/28 07:13:03;;;;;;;8.50;4.40;;;16.90;99.90;;;;;;6196373;23;20545;-86
2022/06/28 07:15:28;;;;;;;5.75;3.75;;;17.00;99.90;;;;;;6220421;23;20067;-87
2022/06/28 07:17:54;;;;;;;5.27;3.70;;;17.10;99.90;;;;;;6220461;23;20066;-88
2022/06/28 07:20:20;;;;;;;6.10;3.40;;;17.10;99.90;;;;;;6194766;23;20720;-84
2022/06/28 07:22:46;;;;;;;9.88;3.50;;;17.20;99.90;;;;;;6219114;23;20016;-83
2022/06/28 07:25:13;;;;;;;7.05;4.07;;;17.20;99.90;;;;;;6218998;23;20051;-84
2022/06/28 07:27:39;;;;;;;6.90;4.03;;;17.20;99.90;;;;;;6219282;23;20043;-88
2022/06/28 07:30:05;;;;;;;7.03;3.70;;;17.30;99.90;;;;;;6218784;23;20079;-83
2022/06/28 07:32:34;;;;;;;6.40;3.60;;;17.20;99.90;;;;;;6245992;23;20020;-85
2022/06/28 07:35:03;;;;;;;6.63;3.60;;;17.10;99.90;;;;;;6219317;23;20016;-83
2022/06/28 07:37:29;;;;;;;5.38;3.88;;;17.20;99.90;;;;;;6194223;23;20456;-83
2022/06/28 07:39:54;;;;;;;8.95;3.33;;;17.20;99.90;;;;;;6246186;23;20086;-83
2022/06/28 07:42:20;;;;;;;6.78;4.00;;;17.20;99.90;;;;;;6218656;23;20492;-89
2022/06/28 07:44:46;;;;;;;3.60;3.20;;;17.10;99.90;;;;;;6245910;23;20024;-84
2022/06/28 07:47:11;;;;;;;5.60;3.47;;;17.00;99.90;;;;;;6194150;23;20255;-83
2022/06/28 07:52:39;;;;;;;4.60;3.63;;;17.20;99.90;;;;;;6218703;23;20255;-89
2022/06/28 07:55:09;;;;;;;4.47;3.00;;;17.40;99.90;;;;;;6198429;23;20344;-84
2022/06/28 07:57:36;;;;;;;6.65;2.33;;;17.50;99.90;;;;;;6218550;23;20016;-83
2022/06/28 08:00:04;;;;;;;5.95;2.55;;;17.60;99.90;;;;;;6219348;23;20405;-82
2022/06/28 08:02:30;;;;;;;6.95;2.42;;;17.60;99.90;;;;;;6245223;23;20094;-83
2022/06/28 08:04:55;;;;;;;5.27;2.87;;;17.60;99.90;;;;;;6219064;23;20047;-83
2022/06/28 08:07:21;;;;;;;4.07;2.40;;;17.60;99.90;;;;;;6246180;23;20024;-83
2022/06/28 08:09:48;;;;;;;5.70;2.30;;;17.60;99.90;;;;;;6245407;23;20023;-83
2022/06/28 08:12:14;;;;;;;;;;;17.60;99.90;;;;;;6219142;23;20012;-84
2022/06/28 08:14:39;;;;;;;8.40;2.63;;;17.50;99.90;;;;;;6244170;23;19930;-83
2022/06/28 08:17:06;;;;;;;5.13;2.20;;;17.60;99.90;;;;;;6219213;23;20016;-84
2022/06/28 08:19:32;;;;;;;;;;;17.70;99.90;;;;;;6194524;23;20031;-84
2022/06/28 08:21:58;;;;;;;2.85;2.38;;;17.80;99.90;;;;;;6219188;23;19919;-83
2022/06/28 08:24:23;;;;;;;2.83;2.20;;;17.90;99.90;;;;;;6218600;23;20063;-83
2022/06/28 08:26:49;;;;;;;4.80;2.40;;;18.10;99.90;;;;;;6245211;23;20046;-83
2022/06/28 08:29:17;;;;;;;2.28;1.77;;;18.10;99.90;;;;;;6193952;23;20027;-87
2022/06/28 08:31:44;;;;;;;3.67;1.83;;;18.20;99.90;;;;;;6244763;23;20023;-84
2022/06/28 08:34:10;;;;;;;2.03;1.80;;;18.30;99.90;;;;;;6219458;23;20042;-83
2022/06/28 08:36:36;;;;;;;4.40;1.90;;;18.30;99.90;;;;;;6192901;23;20035;-84
2022/06/28 08:39:03;;;;;;;2.42;1.80;;;18.30;99.90;;;;;;6193309;23;20433;-82
2022/06/28 08:41:32;;;;;;;4.05;1.63;;;18.30;99.90;;;;;;6245139;23;20023;-88
2022/06/28 08:43:58;;;;;;;3.17;2.15;;;18.40;99.90;;;;;;6245619;23;20016;-81
2022/06/28 08:46:24;;;;;;;4.68;1.55;;;18.30;99.90;;;;;;6245265;23;20143;-83
2022/06/28 08:48:58;;;;;;;;;;;18.30;99.90;;;;;;6193246;23;20012;-84
2022/06/28 08:51:30;;;;;;;6.00;1.65;;;18.30;99.90;;;;;;6193556;23;19919;-83
2022/06/28 08:54:02;;;;;;;4.22;1.92;;;18.40;99.90;;;;;;6218342;23;20451;-82
2022/06/28 08:56:28;;;;;;;6.45;1.90;;;18.60;99.90;;;;;;6218772;23;20059;-83
2022/06/28 08:58:56;;;;;;;;;;;18.60;99.90;;;;;;6218609;23;20341;-83
2022/06/28 09:01:22;;;;;;;;;;;18.70;99.90;;;;;;6219323;23;19915;-82
2022/06/28 09:03:50;;;;;;;1.55;1.45;;;18.70;99.90;;;;;;6217378;23;20005;-83
2022/06/28 09:06:16;;;;;;;5.38;1.65;;;18.60;99.90;;;;;;6245583;23;20127;-83
2022/06/28 09:08:42;;;;;;;3.38;1.40;;;18.60;99.90;;;;;;6217595;23;20044;-83
2022/06/28 09:11:08;;;;;;;3.00;1.75;;;18.70;99.90;;;;;;6218738;23;20020;-83
2022/06/28 09:13:37;;;;;;;2.75;1.55;;;18.70;99.90;;;;;;6244894;23;20138;-88
2022/06/28 09:16:04;;;;;;;3.25;1.63;;;18.60;99.90;;;;;;6193719;23;20031;-83
2022/06/28 09:18:36;;;;;;;4.35;1.60;;;18.70;99.90;;;;;;6218483;23;20020;-83
2022/06/28 09:21:05;;;;;;;1.77;1.50;;;18.70;99.90;;;;;;6218455;23;20077;-83
2022/06/28 09:23:33;;;;;;;2.45;1.65;;;18.80;99.90;;;;;;6245453;23;20066;-83
2022/06/28 09:26:13;;;;;;;3.00;2.08;;;18.70;99.90;;;;;;6218360;23;20440;-82
2022/06/28 09:28:50;;;;;;;5.95;1.50;;;18.70;99.90;;;;;;6244655;23;20020;-84
2022/06/28 09:31:20;;;;;;;2.30;1.98;;;18.70;99.90;;;;;;6245617;23;20019;-83
2022/06/28 09:33:48;;;;;;;1.45;1.30;;;18.70;99.90;;;;;;6192216;23;20030;-83
2022/06/28 09:36:16;;;;;;;2.00;1.58;;;18.70;99.90;;;;;;6244055;23;20016;-83
2022/06/28 09:38:42;;;;;;;3.08;1.60;;;18.70;99.90;;;;;;6192525;23;20095;-84
2022/06/28 09:41:20;;;;;;;1.63;1.45;;;18.70;99.90;;;;;;6218571;23;20085;-83
2022/06/28 09:43:57;;;;;;;7.47;1.67;;;18.70;99.90;;;;;;6217966;23;20087;-83
2022/06/28 09:46:26;;;;;;;1.17;1.00;;;18.70;99.90;;;;;;6245382;23;20012;-82
2022/06/28 09:48:56;;;;;;;1.65;1.52;;;18.70;99.90;;;;;;6216978;23;20024;-83
2022/06/28 09:51:23;;;;;;;3.25;1.25;;;18.70;99.90;;;;;;6218259;23;20096;-83
2022/06/28 09:53:53;;;;;;;2.15;1.42;;;18.70;99.90;;;;;;6217491;23;20020;-84
2022/06/28 09:56:23;;;;;;;1.90;1.58;;;18.80;99.90;;;;;;6217969;23;20460;-84
2022/06/28 09:58:49;;;;;;;2.05;1.25;;;18.90;99.90;;;;;;6217668;23;20027;-83
2022/06/28 10:01:15;;;;;;;1.92;1.27;;;19.00;99.90;;;;;;6196332;23;20349;-85
2022/06/28 10:03:48;;;;;;;1.50;1.40;;;19.10;99.90;;;;;;6198718;23;20453;-94
2022/06/28 10:06:16;;;;;;;3.95;1.67;;;19.60;99.90;;;;;;6195380;23;20046;-84
2022/06/28 10:08:42;;;;;;;1.42;1.20;;;19.20;99.90;;;;;;6217271;23;20016;-89
2022/06/28 10:11:10;;;;;;;2.30;1.55;;;19.20;99.90;;;;;;6222721;23;20024;-86
2022/06/28 10:16:46;;;;;;;4.93;2.15;;;19.40;99.90;;;;;;6219549;23;20094;-85
2022/06/28 10:19:20;;;;;;;1.60;1.10;;;19.50;99.90;;;;;;6196102;23;20016;-85
2022/06/28 10:22:07;;;;;;;1.85;1.27;;;19.60;99.90;;;;;;6221260;23;20022;-84
2022/06/28 10:24:57;;;;;;;2.83;1.50;;;19.60;99.90;;;;;;6221173;23;20095;-84
2022/06/28 10:27:24;;;;;;;3.65;1.60;;;19.60;99.90;;;;;;6195797;23;20024;-84
2022/06/28 10:30:08;;;;;;;1.35;1.15;;;19.70;99.90;;;;;;6220041;23;20052;-83
2022/06/28 10:32:42;;;;;;;1.40;1.00;;;19.80;99.90;;;;;;6220277;23;20082;-83
2022/06/28 10:35:08;;;;;;;5.40;1.27;;;19.90;99.90;;;;;;6221201;23;20024;-82
2022/06/28 10:37:33;;;;;;;2.05;0.90;;;19.90;99.90;;;;;;6203093;23;20107;-86
2022/06/28 10:40:24;;;;;;;2.90;1.50;;;20.00;99.90;;;;;;6195665;23;20375;-85
2022/06/28 10:42:52;;;;;;;1.85;1.10;;;20.10;99.90;;;;;;6194804;23;20020;-86
2022/06/28 10:45:23;;;;;;;1.73;1.05;;;20.10;99.90;;;;;;6220268;23;20016;-86
2022/06/28 10:48:07;;;;;;;3.50;1.30;;;20.10;99.90;;;;;;6170237;23;20053;-88
2022/06/28 10:50:56;;;;;;;3.88;1.45;;;19.20;99.90;;;;;;6195588;23;20079;-85
2022/06/28 10:53:23;;;;;;;3.50;1.77;;;20.20;99.90;;;;;;6221285;23;20013;-85
2022/06/28 10:56:06;;;;;;;;;;;20.30;99.90;;;;;;6221436;23;20016;-89
2022/06/28 10:58:32;;;;;;;3.13;1.42;;;20.40;99.90;;;;;;6220859;23;19915;-87
2022/06/28 11:00:58;;;;;;;3.25;2.65;;;20.40;99.90;;;;;;6195793;23;20449;-86
2022/06/28 11:03:23;;;;;;;1.52;1.40;;;20.40;99.90;;;;;;6171158;23;20098;-85
2022/06/28 11:05:55;;;;;;;1.42;1.20;;;20.50;99.90;;;;;;6195595;23;20017;-89
2022/06/28 11:08:36;;;;;;;0.82;0.80;;;20.40;99.90;;;;;;6220661;23;20488;-86
2022/06/28 11:11:04;;;;;;;1.73;1.00;;;20.50;99.90;;;;;;6220475;23;20094;-87
2022/06/28 11:13:30;;;;;;;1.40;1.30;;;20.50;99.90;;;;;;6221401;23;20016;-87
2022/06/28 11:15:56;;;;;;;2.40;1.00;;;20.60;99.90;;;;;;6220924;23;20041;-87
2022/06/28 11:18:25;;;;;;;3.60;1.10;;;20.70;99.90;;;;;;6195398;23;20011;-86
2022/06/28 11:20:53;;;;;;;1.55;1.05;;;20.70;99.90;;;;;;6172080;23;20055;-91
2022/06/28 11:23:30;;;;;;;1.38;0.95;;;20.80;99.90;;;;;;6221404;23;20066;-89
2022/06/28 11:29:16;;;;;;;4.25;1.10;;;20.90;99.90;;;;;;6219310;23;20062;-88
2022/06/28 11:31:42;;;;;;;1.58;0.90;;;21.00;99.90;;;;;;6220545;23;20528;-88
2022/06/28 11:34:08;;;;;;;3.78;1.23;;;21.10;99.90;;;;;;6220968;23;20060;-89
2022/06/28 11:36:34;;;;;;;1.13;0.95;;;21.20;99.90;;;;;;6219483;23;20012;-90
2022/06/28 11:39:16;;;;;;;3.28;0.98;;;21.30;99.90;;;;;;6220466;23;20099;-89
2022/06/28 11:41:50;;;;;;;4.03;1.20;;;21.30;99.90;;;;;;6194643;23;20027;-87
2022/06/28 11:44:17;;;;;;;3.97;0.90;;;21.30;99.90;;;;;;6219601;23;20496;-86
2022/06/28 11:46:46;;;;;;;2.10;1.10;;;21.30;99.90;;;;;;6219080;23;20035;-87
2022/06/28 11:49:12;;;;;;;2.80;1.58;;;21.40;99.90;;;;;;6217959;23;20023;-86
2022/06/28 11:51:41;;;;;;;3.17;0.82;;;21.50;99.90;;;;;;6193692;23;20024;-85
2022/06/28 11:54:08;;;;;;;4.68;1.05;;;21.60;99.90;;;;;;6168510;23;20111;-87
2022/06/28 11:56:44;;;;;;;3.92;0.82;;;21.60;99.90;;;;;;6194276;23;20020;-86
2022/06/28 11:59:10;;;;;;;1.70;1.10;;;21.70;99.90;;;;;;6192894;23;20472;-87
2022/06/28 12:01:39;;;;;;;0.52;0.52;;;21.70;99.90;;;;;;6194229;23;20012;-85
2022/06/28 12:04:06;;;;;;;1.33;0.70;;;21.80;99.90;;;;;;6192896;23;20069;-85
2022/06/28 12:06:39;;;;;;;1.42;0.80;;;21.80;99.90;;;;;;6244507;23;20020;-86
2022/06/28 12:09:11;;;;;;;1.17;0.65;;;21.80;99.90;;;;;;6219136;23;20008;-92
2022/06/28 12:11:50;;;;;;;1.08;0.90;;;21.80;99.90;;;;;;6219087;23;20099;-87
2022/06/28 12:14:20;;;;;;;1.88;0.73;;;21.70;99.90;;;;;;6216741;23;20016;-85
2022/06/28 12:16:55;;;;;;;1.23;0.70;;;21.60;99.90;;;;;;6216997;23;20012;-88
2022/06/28 12:19:21;;;;;;;1.33;0.80;;;21.40;99.90;;;;;;6216282;23;20082;-86
2022/06/28 12:22:18;;;;;;;3.88;0.98;;;21.30;99.90;;;;;;6218514;23;20016;-85
2022/06/28 12:24:54;;;;;;;1.90;0.70;;;21.30;99.90;;;;;;6163861;23;20024;-87
2022/06/28 12:27:34;;;;;;;2.53;1.07;;;21.20;99.90;;;;;;6217870;23;20105;-84
2022/06/28 12:30:01;;;;;;;0.73;0.70;;;21.20;99.90;;;;;;6219194;23;20067;-87
2022/06/28 12:32:28;;;;;;;3.63;1.20;;;20.70;99.90;;;;;;6218071;23;20016;-87
2022/06/28 12:34:58;;;;;;;1.33;0.73;;;21.20;99.90;;;;;;6218665;23;20016;-86
2022/06/28 12:37:27;;;;;;;1.20;1.10;;;21.20;99.90;;;;;;6193649;23;20027;-87
2022/06/28 12:39:55;;;;;;;5.03;0.80;;;21.10;99.90;;;;;;6193814;23;20016;-87
2022/06/28 12:42:21;;;;;;;0.70;0.70;;;21.00;99.90;;;;;;6218289;23;20397;-87
2022/06/28 12:44:46;;;;;;;0.80;0.80;;;21.10;99.90;;;;;;6193546;23;20314;-87
2022/06/28 12:47:12;;;;;;;0.98;0.80;;;21.20;99.90;;;;;;6144240;23;20074;-87
2022/06/28 12:49:38;;;;;;;0.93;0.90;;;21.40;99.90;;;;;;6168966;23;20016;-87
2022/06/28 12:52:05;;;;;;;2.70;0.90;;;21.50;99.90;;;;;;6218932;23;20016;-91
2022/06/28 12:54:31;;;;;;;1.58;0.70;;;21.60;99.90;;;;;;6218849;23;20061;-87
2022/06/28 12:56:57;;;;;;;1.70;1.23;;;21.60;99.90;;;;;;6194087;23;20016;-86
2022/06/28 12:59:23;;;;;;;3.47;1.10;;;21.60;99.90;;;;;;6168736;23;20012;-87
2022/06/28 13:01:49;;;;;;;2.17;0.77;;;21.70;99.90;;;;;;6193797;23;20074;-87
2022/06/28 13:04:16;;;;;;;2.95;0.82;;;21.80;99.90;;;;;;6193484;23;20517;-87
2022/06/28 13:06:47;;;;;;;3.15;0.63;;;21.80;99.90;;;;;;6219050;23;20016;-86
2022/06/28 13:09:13;;;;;;;0.93;0.60;;;21.90;99.90;;;;;;6218669;23;20019;-87